Time,TemperatureF,DewpointF,PressureIn,WindDirection,WindDirectionDegrees,WindSpeedMPH,WindSpeedGustMPH,Humidity,HourlyPrecipIn,Conditions,Clouds,dailyrainin,SoftwareType,DateUTC
2013-07-23 00:10:00,76.3,65.0,30.10,NE,42,0.0,0.0,67,0.00,,,0.00,weatherlink.com 1.10,2013-07-23 04:10:00,
2013-07-23 00:25:00,76.6,63.0,30.10,NE,42,0.0,0.0,62,0.00,,,0.00,weatherlink.com 1.10,2013-07-23 04:25:00,
2013-07-23 00:40:00,77.3,63.0,30.09,East,90,0.0,1.0,61,0.00,,,0.00,weatherlink.com 1.10,2013-07-23 04:40:00,
2013-07-23 00:55:00,78.0,63.0,30.08,SE,129,3.0,7.0,60,0.00,,,0.00,weatherlink.com 1.10,2013-07-23 04:55:00,
2013-07-23 01:10:00,78.0,65.0,30.08,South,172,4.0,4.0,64,0.00,,,0.00,weatherlink.com 1.10,2013-07-23 05:10:00,
2013-07-23 01:25:00,78.3,63.0,30.08,South,169,0.0,3.0,60,0.00,,,0.00,weatherlink.com 1.10,2013-07-23 05:25:00,
2013-07-23 01:40:00,77.9,62.0,30.08,South,169,2.0,5.0,58,0.00,,,0.00,weatherlink.com 1.10,2013-07-23 05:40:00,
2013-07-23 01:55:00,77.7,60.0,30.08,SSW,193,5.0,7.0,54,0.00,,,0.00,weatherlink.com 1.10,2013-07-23 05:55:00,
2013-07-23 02:10:00,77.9,60.0,30.07,SSW,200,5.0,7.0,55,0.00,,,0.00,weatherlink.com 1.10,2013-07-23 06:10:00,
2013-07-23 02:25:00,78.3,63.0,30.07,SW,215,5.0,7.0,60,0.00,,,0.00,weatherlink.com 1.10,2013-07-23 06:25:00,
2013-07-23 02:40:00,78.2,65.0,30.07,SW,227,4.0,7.0,63,0.00,,,0.00,weatherlink.com 1.10,2013-07-23 06:40:00,
2013-07-23 02:55:00,78.3,65.0,30.06,SW,223,6.0,7.0,63,0.00,,,0.00,weatherlink.com 1.10,2013-07-23 06:55:00,
2013-07-23 03:10:00,78.4,64.0,30.06,SSW,209,5.0,8.0,62,0.00,,,0.00,weatherlink.com 1.10,2013-07-23 07:10:00,
2013-07-23 03:25:00,78.3,64.0,30.06,SW,222,5.0,7.0,62,0.00,,,0.00,weatherlink.com 1.10,2013-07-23 07:25:00,
2013-07-23 03:40:00,78.5,65.0,30.06,SW,215,6.0,9.0,63,0.00,,,0.00,weatherlink.com 1.10,2013-07-23 07:40:00,
2013-07-23 03:55:00,78.0,63.0,30.05,SW,220,4.0,8.0,61,0.00,,,0.00,weatherlink.com 1.10,2013-07-23 07:55:00,
2013-07-23 04:10:00,78.0,62.0,30.05,SW,231,5.0,6.0,58,0.00,,,0.00,weatherlink.com 1.10,2013-07-23 08:10:00,
2013-07-23 04:26:00,78.2,62.0,30.05,SW,222,4.0,6.0,58,0.00,,,0.00,weatherlink.com 1.10,2013-07-23 08:26:00,
2013-07-23 04:40:00,78.4,63.0,30.05,WSW,248,7.0,9.0,60,0.00,,,0.00,weatherlink.com 1.10,2013-07-23 08:40:00,
2013-07-23 04:56:00,78.6,64.0,30.05,SW,221,6.0,9.0,62,0.00,,,0.00,weatherlink.com 1.10,2013-07-23 08:56:00,
2013-07-23 05:11:00,78.7,65.0,30.05,SW,226,6.0,8.0,62,0.00,,,0.00,weatherlink.com 1.10,2013-07-23 09:11:00,
2013-07-23 05:26:00,78.6,64.0,30.05,SSW,213,5.0,8.0,62,0.00,,,0.00,weatherlink.com 1.10,2013-07-23 09:26:00,
2013-07-23 05:41:00,78.0,64.0,30.05,SSW,204,5.0,7.0,62,0.00,,,0.00,weatherlink.com 1.10,2013-07-23 09:41:00,
2013-07-23 05:56:00,77.8,63.0,30.05,SSW,205,6.0,6.0,61,0.00,,,0.00,weatherlink.com 1.10,2013-07-23 09:56:00,
2013-07-23 06:11:00,77.6,63.0,30.06,SSW,197,4.0,6.0,60,0.00,,,0.00,weatherlink.com 1.10,2013-07-23 10:11:00,
2013-07-23 06:26:00,77.5,62.0,30.06,SSW,196,5.0,7.0,60,0.00,,,0.00,weatherlink.com 1.10,2013-07-23 10:26:00,
2013-07-23 06:41:00,77.6,62.0,30.07,SW,217,4.0,6.0,58,0.00,,,0.00,weatherlink.com 1.10,2013-07-23 10:41:00,
2013-07-23 06:56:00,77.7,63.0,30.07,SW,218,4.0,6.0,60,0.00,,,0.00,weatherlink.com 1.10,2013-07-23 10:56:00,
2013-07-23 07:11:00,78.0,63.0,30.07,SW,223,5.0,6.0,61,0.00,,,0.00,weatherlink.com 1.10,2013-07-23 11:11:00,
2013-07-23 07:26:00,78.0,63.0,30.08,SSW,212,5.0,7.0,61,0.00,,,0.00,weatherlink.com 1.10,2013-07-23 11:26:00,
2013-07-23 07:41:00,77.9,63.0,30.08,South,189,0.0,6.0,60,0.00,,,0.00,weatherlink.com 1.10,2013-07-23 11:41:00,
2013-07-23 07:56:00,77.9,64.0,30.08,SW,220,5.0,6.0,62,0.00,,,0.00,weatherlink.com 1.10,2013-07-23 11:56:00,
2013-07-23 08:11:00,78.1,64.0,30.08,SSW,210,5.0,6.0,62,0.00,,,0.00,weatherlink.com 1.10,2013-07-23 12:11:00,
2013-07-23 08:26:00,78.2,65.0,30.08,SW,215,5.0,7.0,65,0.00,,,0.00,weatherlink.com 1.10,2013-07-23 12:26:00,
2013-07-23 08:41:00,78.5,66.0,30.08,SSW,209,7.0,7.0,66,0.00,,,0.00,weatherlink.com 1.10,2013-07-23 12:41:00,
2013-07-23 08:56:00,79.1,69.0,30.08,SW,219,4.0,7.0,72,0.00,,,0.00,weatherlink.com 1.10,2013-07-23 12:56:00,
2013-07-23 09:11:00,79.4,70.0,30.09,WSW,238,6.0,8.0,74,0.00,,,0.00,weatherlink.com 1.10,2013-07-23 13:11:00,
2013-07-23 09:26:00,79.8,71.0,30.09,SW,227,5.0,8.0,74,0.00,,,0.00,weatherlink.com 1.10,2013-07-23 13:26:00,
2013-07-23 09:41:00,80.3,72.0,30.09,WSW,243,9.0,10.0,76,0.00,,,0.00,weatherlink.com 1.10,2013-07-23 13:41:00,
2013-07-23 09:56:00,80.4,72.0,30.09,WSW,242,7.0,9.0,76,0.00,,,0.00,weatherlink.com 1.10,2013-07-23 13:56:00,
2013-07-23 10:11:00,80.5,72.0,30.08,SW,236,6.0,9.0,76,0.00,,,0.00,weatherlink.com 1.10,2013-07-23 14:11:00,
2013-07-23 10:26:00,74.9,60.0,30.09,WNW,288,4.0,30.0,60,0.10,,,0.10,weatherlink.com 1.10,2013-07-23 14:26:00,
2013-07-23 10:41:00,74.5,60.0,30.09,West,279,6.0,14.0,61,0.10,,,0.10,weatherlink.com 1.10,2013-07-23 14:41:00,
2013-07-23 10:56:00,75.3,60.0,30.09,WSW,250,11.0,15.0,60,0.10,,,0.10,weatherlink.com 1.10,2013-07-23 14:56:00,
2013-07-23 11:11:00,75.3,63.0,30.09,WSW,242,7.0,12.0,66,0.10,,,0.10,weatherlink.com 1.10,2013-07-23 15:11:00,
2013-07-23 11:27:00,76.3,65.0,30.09,WSW,242,8.0,12.0,67,0.00,,,0.10,weatherlink.com 1.10,2013-07-23 15:27:00,
2013-07-23 11:41:00,76.4,66.0,30.09,WSW,238,8.0,12.0,71,0.00,,,0.10,weatherlink.com 1.10,2013-07-23 15:41:00,
2013-07-23 11:56:00,76.8,69.0,30.09,WSW,246,7.0,9.0,76,0.00,,,0.10,weatherlink.com 1.10,2013-07-23 15:56:00,
2013-07-23 12:11:00,77.3,70.0,30.09,SW,234,7.0,9.0,77,0.00,,,0.10,weatherlink.com 1.10,2013-07-23 16:11:00,
2013-07-23 12:26:00,77.1,68.0,30.09,WSW,238,5.0,9.0,73,0.00,,,0.10,weatherlink.com 1.10,2013-07-23 16:26:00,
2013-07-23 12:41:00,77.3,67.0,30.09,SW,236,9.0,10.0,70,0.00,,,0.10,weatherlink.com 1.10,2013-07-23 16:41:00,
2013-07-23 12:56:00,77.3,68.0,30.08,WSW,247,10.0,12.0,74,0.00,,,0.10,weatherlink.com 1.10,2013-07-23 16:56:00,
2013-07-23 13:11:00,77.6,70.0,30.08,WSW,244,14.0,15.0,76,0.01,,,0.11,weatherlink.com 1.10,2013-07-23 17:11:00,
2013-07-23 13:26:00,77.1,67.0,30.08,WSW,254,13.0,19.0,71,0.01,,,0.11,weatherlink.com 1.10,2013-07-23 17:26:00,
2013-07-23 13:41:00,76.5,66.0,30.08,WSW,252,13.0,16.0,69,0.02,,,0.12,weatherlink.com 1.10,2013-07-23 17:41:00,
2013-07-23 13:56:00,75.9,62.0,30.07,WSW,246,11.0,16.0,63,0.02,,,0.12,weatherlink.com 1.10,2013-07-23 17:56:00,
2013-07-23 14:26:00,76.2,63.0,30.06,WSW,257,8.0,12.0,63,0.01,,,0.12,weatherlink.com 1.10,2013-07-23 18:26:00,
2013-07-23 14:41:00,76.2,64.0,30.05,WSW,256,7.0,11.0,67,0.00,,,0.12,weatherlink.com 1.10,2013-07-23 18:41:00,
2013-07-23 14:56:00,76.7,66.0,30.04,WSW,249,9.0,10.0,70,0.00,,,0.12,weatherlink.com 1.10,2013-07-23 18:56:00,
2013-07-23 15:12:00,76.7,66.0,30.04,WSW,245,6.0,10.0,70,0.00,,,0.12,weatherlink.com 1.10,2013-07-23 19:12:00,
2013-07-23 15:27:00,77.1,68.0,30.04,WSW,246,8.0,10.0,73,0.00,,,0.12,weatherlink.com 1.10,2013-07-23 19:27:00,
2013-07-23 15:42:00,77.5,70.0,30.04,WSW,250,9.0,10.0,77,0.00,,,0.12,weatherlink.com 1.10,2013-07-23 19:42:00,
2013-07-23 16:12:00,77.7,70.0,30.04,West,265,11.0,12.0,78,0.00,,,0.12,weatherlink.com 1.10,2013-07-23 20:12:00,
2013-07-23 16:27:00,77.7,70.0,30.03,WSW,250,7.0,9.0,78,0.00,,,0.12,weatherlink.com 1.10,2013-07-23 20:27:00,
2013-07-23 16:42:00,78.0,71.0,30.02,WSW,251,8.0,10.0,79,0.00,,,0.12,weatherlink.com 1.10,2013-07-23 20:42:00,
2013-07-23 16:57:00,78.2,70.0,30.03,West,264,8.0,10.0,77,0.00,,,0.12,weatherlink.com 1.10,2013-07-23 20:57:00,
2013-07-23 17:12:00,78.2,71.0,30.03,West,262,9.0,15.0,78,0.00,,,0.12,weatherlink.com 1.10,2013-07-23 21:12:00,
2013-07-23 17:27:00,78.6,71.0,30.03,West,277,11.0,15.0,78,0.00,,,0.12,weatherlink.com 1.10,2013-07-23 21:27:00,
2013-07-23 17:42:00,78.9,72.0,30.03,West,265,10.0,17.0,78,0.00,,,0.12,weatherlink.com 1.10,2013-07-23 21:42:00,
2013-07-23 17:57:00,79.3,72.0,30.00,WSW,244,12.0,21.0,79,0.00,,,0.12,weatherlink.com 1.10,2013-07-23 21:57:00,
2013-07-23 18:27:00,78.3,71.0,29.98,WSW,250,7.0,12.0,79,0.00,,,0.12,weatherlink.com 1.10,2013-07-23 22:27:00,
2013-07-23 18:57:00,77.6,70.0,29.98,West,259,8.0,11.0,78,0.00,,,0.12,weatherlink.com 1.10,2013-07-23 22:57:00,
2013-07-23 19:12:00,77.2,69.0,29.98,West,260,11.0,15.0,76,0.00,,,0.12,weatherlink.com 1.10,2013-07-23 23:12:00,
2013-07-23 19:27:00,76.7,67.0,29.98,WSW,257,6.0,11.0,71,0.00,,,0.12,weatherlink.com 1.10,2013-07-23 23:27:00,
2013-07-23 19:42:00,76.4,65.0,29.98,West,265,4.0,8.0,67,0.00,,,0.12,weatherlink.com 1.10,2013-07-23 23:42:00,
2013-07-23 19:57:00,76.2,65.0,29.99,WNW,284,0.0,6.0,68,0.00,,,0.12,weatherlink.com 1.10,2013-07-23 23:57:00,
2013-07-23 20:27:00,76.1,63.0,29.98,WSW,255,3.0,7.0,64,0.00,,,0.12,weatherlink.com 1.10,2013-07-24 00:27:00,
2013-07-23 20:42:00,75.9,64.0,29.98,West,276,0.0,4.0,66,0.00,,,0.12,weatherlink.com 1.10,2013-07-24 00:42:00,
2013-07-23 20:57:00,75.5,62.0,29.98,West,276,0.0,4.0,64,0.00,,,0.12,weatherlink.com 1.10,2013-07-24 00:57:00,
2013-07-23 21:12:00,75.5,61.0,29.98,West,262,0.0,3.0,61,0.00,,,0.12,weatherlink.com 1.10,2013-07-24 01:12:00,
2013-07-23 21:27:00,76.4,62.0,29.99,WSW,252,3.0,7.0,61,0.00,,,0.12,weatherlink.com 1.10,2013-07-24 01:27:00,
2013-07-23 21:42:00,76.9,66.0,30.00,West,268,5.0,9.0,68,0.00,,,0.12,weatherlink.com 1.10,2013-07-24 01:42:00,
2013-07-23 21:57:00,77.0,66.0,30.00,WSW,257,8.0,10.0,69,0.00,,,0.12,weatherlink.com 1.10,2013-07-24 01:57:00,
2013-07-23 22:12:00,77.0,66.0,30.00,West,259,7.0,9.0,68,0.00,,,0.12,weatherlink.com 1.10,2013-07-24 02:12:00,
2013-07-23 22:27:00,76.8,65.0,30.01,WSW,240,7.0,9.0,67,0.00,,,0.12,weatherlink.com 1.10,2013-07-24 02:27:00,
2013-07-23 23:12:00,76.8,63.0,30.01,SW,236,7.0,8.0,63,0.00,,,0.12,weatherlink.com 1.10,2013-07-24 03:12:00,
2013-07-23 23:27:00,77.3,63.0,30.01,SW,235,7.0,9.0,61,0.00,,,0.12,weatherlink.com 1.10,2013-07-24 03:27:00,
2013-07-23 23:42:00,77.8,63.0,30.01,SW,229,6.0,8.0,60,0.00,,,0.12,weatherlink.com 1.10,2013-07-24 03:42:00,
2013-07-23 23:57:00,77.9,64.0,30.01,SW,225,6.0,8.0,63,0.00,,,0.12,weatherlink.com 1.10,2013-07-24 03:57:00,